首页
METAR-TAF:

METAR-TAF

机场 :

東京國際機場

东京国际机场, 日本

纬度: 35-33N, 经度: 139-47E, 海拔: 5米

当前天气观测

该预报发布于30分钟前的21:00 UTC
风速11节,风向北转西北
温度 16°C
湿度 68%
气压 1023 hPa
能见度10公里或以上
少量云层高于3000英尺
多云层高于6000英尺

METAR: RJTT 222100Z 34011KT 9999 FEW030 BKN060 16/10 Q1023 NOSIG RMK 1CU030 7SC060 A3021

时间: 06:30 (21:30 UTC)

预报

该预报发布于4小时和24分钟前的17:06 UTC
预报有效从22日的 18点(UTC)到 24日的 00点(UTC)
风速12节,风向
能见度10公里或以上
少量云层高于2000英尺
散云层高于5000英尺
成为
从 23日的 04点(UTC)到 23日的 06点(UTC)
风速10节,风向东北
成为
从 23日的 09点(UTC)到 23日的 12点(UTC)
风速10节,风向北转西北

TAF: RJTT 221706Z 2218/2400 35012KT 9999 FEW020 SCT050 BECMG 2304/2306 05010KT BECMG 2309/2312 34010KT

超过4000个机场的气象观测和天气预报(METAR&TAF报告)。

可查询的气象台以黄色和红色小点在地图上表示。

将鼠标移到小点上方,可查看气象台名称。

然后点击查看天气观测和预报。

如需切换地图:点击带黑十字的绿色按钮放大地图;点击带横线的绿色按钮缩小地图;或者点击绿色箭头查看邻近地区的地图。


METAR-TAF: